sensor_id;sensor_type;location;lat;lon;timestamp;P1;durP1;ratioP1;P2;durP2;ratioP2
17925;SDS011;9088;55.674;13.354;2023-10-31T00:01:52;1.10;;;1.10;;
17925;SDS011;9088;55.674;13.354;2023-10-31T00:04:20;1.10;;;1.10;;
17925;SDS011;9088;55.674;13.354;2023-10-31T00:06:47;1.00;;;1.00;;
17925;SDS011;9088;55.674;13.354;2023-10-31T00:09:16;1.00;;;1.00;;
17925;SDS011;9088;55.674;13.354;2023-10-31T00:11:43;1.00;;;1.00;;
17925;SDS011;9088;55.674;13.354;2023-10-31T00:14:10;1.00;;;1.00;;
17925;SDS011;9088;55.674;13.354;2023-10-31T00:16:37;1.00;;;1.00;;
17925;SDS011;9088;55.674;13.354;2023-10-31T00:19:04;1.00;;;1.00;;
17925;SDS011;9088;55.674;13.354;2023-10-31T00:21:31;1.00;;;1.00;;
17925;SDS011;9088;55.674;13.354;2023-10-31T00:23:58;1.00;;;1.00;;
17925;SDS011;9088;55.674;13.354;2023-10-31T00:26:26;1.00;;;1.00;;
17925;SDS011;9088;55.674;13.354;2023-10-31T00:28:53;1.00;;;1.00;;
17925;SDS011;9088;55.674;13.354;2023-10-31T00:31:20;1.00;;;1.00;;
17925;SDS011;9088;55.674;13.354;2023-10-31T00:33:47;1.00;;;1.00;;
17925;SDS011;9088;55.674;13.354;2023-10-31T00:36:14;1.00;;;1.00;;
17925;SDS011;9088;55.674;13.354;2023-10-31T00:38:41;1.00;;;1.00;;
17925;SDS011;9088;55.674;13.354;2023-10-31T00:41:08;1.10;;;1.10;;
17925;SDS011;9088;55.674;13.354;2023-10-31T00:43:37;1.00;;;1.00;;
17925;SDS011;9088;55.674;13.354;2023-10-31T00:46:04;1.10;;;1.10;;
17925;SDS011;9088;55.674;13.354;2023-10-31T00:48:31;1.05;;;1.05;;
17925;SDS011;9088;55.674;13.354;2023-10-31T00:51:01;1.10;;;1.10;;
17925;SDS011;9088;55.674;13.354;2023-10-31T00:53:28;1.10;;;1.10;;
17925;SDS011;9088;55.674;13.354;2023-10-31T00:55:55;1.00;;;1.00;;
17925;SDS011;9088;55.674;13.354;2023-10-31T00:58:22;1.00;;;1.00;;
17925;SDS011;9088;55.674;13.354;2023-10-31T01:00:51;1.13;;;1.13;;
17925;SDS011;9088;55.674;13.354;2023-10-31T01:03:18;1.10;;;1.10;;
17925;SDS011;9088;55.674;13.354;2023-10-31T01:05:45;1.10;;;1.10;;
17925;SDS011;9088;55.674;13.354;2023-10-31T01:08:12;1.20;;;1.20;;
17925;SDS011;9088;55.674;13.354;2023-10-31T01:10:39;1.00;;;1.00;;
17925;SDS011;9088;55.674;13.354;2023-10-31T01:13:06;1.10;;;1.10;;
17925;SDS011;9088;55.674;13.354;2023-10-31T01:15:33;1.10;;;1.10;;
17925;SDS011;9088;55.674;13.354;2023-10-31T01:18:01;1.20;;;1.20;;
17925;SDS011;9088;55.674;13.354;2023-10-31T01:20:28;1.20;;;1.20;;
17925;SDS011;9088;55.674;13.354;2023-10-31T01:22:55;1.10;;;1.10;;
17925;SDS011;9088;55.674;13.354;2023-10-31T01:25:22;1.20;;;1.20;;
17925;SDS011;9088;55.674;13.354;2023-10-31T01:27:49;1.20;;;1.20;;
17925;SDS011;9088;55.674;13.354;2023-10-31T01:30:16;1.00;;;1.00;;
17925;SDS011;9088;55.674;13.354;2023-10-31T01:32:44;1.03;;;1.03;;
17925;SDS011;9088;55.674;13.354;2023-10-31T01:35:12;1.20;;;1.20;;
17925;SDS011;9088;55.674;13.354;2023-10-31T01:37:39;1.10;;;1.10;;
17925;SDS011;9088;55.674;13.354;2023-10-31T01:40:06;1.10;;;1.10;;
17925;SDS011;9088;55.674;13.354;2023-10-31T01:42:35;1.10;;;1.10;;
17925;SDS011;9088;55.674;13.354;2023-10-31T01:45:02;1.17;;;1.17;;
17925;SDS011;9088;55.674;13.354;2023-10-31T01:47:29;0.93;;;0.93;;
17925;SDS011;9088;55.674;13.354;2023-10-31T01:49:56;1.10;;;1.10;;
17925;SDS011;9088;55.674;13.354;2023-10-31T01:52:25;1.20;;;1.20;;
17925;SDS011;9088;55.674;13.354;2023-10-31T01:54:53;1.10;;;1.10;;
17925;SDS011;9088;55.674;13.354;2023-10-31T01:57:21;1.10;;;1.10;;
17925;SDS011;9088;55.674;13.354;2023-10-31T01:59:48;1.20;;;1.20;;
17925;SDS011;9088;55.674;13.354;2023-10-31T02:02:15;1.20;;;1.20;;
17925;SDS011;9088;55.674;13.354;2023-10-31T02:04:42;1.10;;;1.10;;
17925;SDS011;9088;55.674;13.354;2023-10-31T02:07:09;1.17;;;1.17;;
17925;SDS011;9088;55.674;13.354;2023-10-31T02:09:37;1.00;;;1.00;;
17925;SDS011;9088;55.674;13.354;2023-10-31T02:12:04;1.00;;;1.00;;
17925;SDS011;9088;55.674;13.354;2023-10-31T02:14:31;1.10;;;1.10;;
17925;SDS011;9088;55.674;13.354;2023-10-31T02:16:58;0.90;;;0.90;;
17925;SDS011;9088;55.674;13.354;2023-10-31T02:19:26;1.00;;;1.00;;
17925;SDS011;9088;55.674;13.354;2023-10-31T02:21:54;0.90;;;0.90;;
17925;SDS011;9088;55.674;13.354;2023-10-31T02:24:21;0.90;;;0.90;;
17925;SDS011;9088;55.674;13.354;2023-10-31T02:26:48;0.90;;;0.90;;
17925;SDS011;9088;55.674;13.354;2023-10-31T02:29:15;0.90;;;0.90;;
17925;SDS011;9088;55.674;13.354;2023-10-31T02:31:42;1.00;;;1.00;;
17925;SDS011;9088;55.674;13.354;2023-10-31T02:34:09;0.90;;;0.90;;
17925;SDS011;9088;55.674;13.354;2023-10-31T02:36:36;0.90;;;0.90;;
17925;SDS011;9088;55.674;13.354;2023-10-31T02:39:04;1.00;;;1.00;;
17925;SDS011;9088;55.674;13.354;2023-10-31T02:41:31;1.00;;;1.00;;
17925;SDS011;9088;55.674;13.354;2023-10-31T02:43:58;0.90;;;0.90;;
17925;SDS011;9088;55.674;13.354;2023-10-31T02:46:25;1.17;;;1.17;;
17925;SDS011;9088;55.674;13.354;2023-10-31T02:48:52;1.00;;;1.00;;
17925;SDS011;9088;55.674;13.354;2023-10-31T02:51:20;1.17;;;1.17;;
17925;SDS011;9088;55.674;13.354;2023-10-31T02:53:47;1.10;;;1.10;;
17925;SDS011;9088;55.674;13.354;2023-10-31T02:56:15;1.10;;;1.10;;
17925;SDS011;9088;55.674;13.354;2023-10-31T02:58:45;1.00;;;1.00;;
17925;SDS011;9088;55.674;13.354;2023-10-31T03:01:12;1.10;;;1.10;;
17925;SDS011;9088;55.674;13.354;2023-10-31T03:03:39;1.10;;;1.10;;
17925;SDS011;9088;55.674;13.354;2023-10-31T03:06:06;1.20;;;1.20;;
17925;SDS011;9088;55.674;13.354;2023-10-31T03:08:33;1.10;;;1.10;;
17925;SDS011;9088;55.674;13.354;2023-10-31T03:11:00;1.20;;;1.20;;
17925;SDS011;9088;55.674;13.354;2023-10-31T03:13:29;1.20;;;1.20;;
17925;SDS011;9088;55.674;13.354;2023-10-31T03:15:56;1.20;;;1.20;;
17925;SDS011;9088;55.674;13.354;2023-10-31T03:18:23;1.10;;;1.10;;
17925;SDS011;9088;55.674;13.354;2023-10-31T03:20:50;1.20;;;1.20;;
17925;SDS011;9088;55.674;13.354;2023-10-31T03:23:20;1.20;;;1.20;;
17925;SDS011;9088;55.674;13.354;2023-10-31T03:25:47;1.20;;;1.20;;
17925;SDS011;9088;55.674;13.354;2023-10-31T03:28:17;1.10;;;1.10;;
17925;SDS011;9088;55.674;13.354;2023-10-31T03:30:46;1.20;;;1.20;;
17925;SDS011;9088;55.674;13.354;2023-10-31T03:33:14;1.13;;;1.13;;
17925;SDS011;9088;55.674;13.354;2023-10-31T03:35:41;1.20;;;1.20;;
17925;SDS011;9088;55.674;13.354;2023-10-31T03:38:08;1.10;;;1.10;;
17925;SDS011;9088;55.674;13.354;2023-10-31T03:40:38;1.10;;;1.10;;
17925;SDS011;9088;55.674;13.354;2023-10-31T03:43:06;1.10;;;1.10;;
17925;SDS011;9088;55.674;13.354;2023-10-31T03:45:33;1.10;;;1.10;;
17925;SDS011;9088;55.674;13.354;2023-10-31T03:48:01;1.00;;;1.00;;
17925;SDS011;9088;55.674;13.354;2023-10-31T03:50:28;1.10;;;1.10;;
17925;SDS011;9088;55.674;13.354;2023-10-31T03:52:55;1.00;;;1.00;;
17925;SDS011;9088;55.674;13.354;2023-10-31T03:55:22;1.10;;;1.10;;
17925;SDS011;9088;55.674;13.354;2023-10-31T03:57:53;1.00;;;1.00;;
17925;SDS011;9088;55.674;13.354;2023-10-31T04:00:20;1.00;;;1.00;;
17925;SDS011;9088;55.674;13.354;2023-10-31T04:02:47;1.10;;;1.10;;
17925;SDS011;9088;55.674;13.354;2023-10-31T04:05:15;1.00;;;1.00;;
17925;SDS011;9088;55.674;13.354;2023-10-31T04:07:42;1.10;;;1.10;;
17925;SDS011;9088;55.674;13.354;2023-10-31T04:10:09;1.17;;;1.17;;
17925;SDS011;9088;55.674;13.354;2023-10-31T04:12:37;1.10;;;1.10;;
17925;SDS011;9088;55.674;13.354;2023-10-31T04:15:04;1.00;;;1.00;;
17925;SDS011;9088;55.674;13.354;2023-10-31T04:17:31;1.03;;;1.03;;
17925;SDS011;9088;55.674;13.354;2023-10-31T04:19:58;1.20;;;1.20;;
17925;SDS011;9088;55.674;13.354;2023-10-31T04:22:26;1.20;;;1.20;;
17925;SDS011;9088;55.674;13.354;2023-10-31T04:24:54;1.30;;;1.30;;
17925;SDS011;9088;55.674;13.354;2023-10-31T04:27:21;1.30;;;1.30;;
17925;SDS011;9088;55.674;13.354;2023-10-31T04:29:48;1.27;;;1.27;;
17925;SDS011;9088;55.674;13.354;2023-10-31T04:32:15;1.33;;;1.33;;
17925;SDS011;9088;55.674;13.354;2023-10-31T04:34:42;1.30;;;1.30;;
17925;SDS011;9088;55.674;13.354;2023-10-31T04:37:09;1.30;;;1.30;;
17925;SDS011;9088;55.674;13.354;2023-10-31T04:39:37;1.20;;;1.20;;
17925;SDS011;9088;55.674;13.354;2023-10-31T04:42:04;1.30;;;1.30;;
17925;SDS011;9088;55.674;13.354;2023-10-31T04:44:31;1.20;;;1.20;;
17925;SDS011;9088;55.674;13.354;2023-10-31T04:47:00;1.30;;;1.30;;
17925;SDS011;9088;55.674;13.354;2023-10-31T04:49:27;1.30;;;1.30;;
17925;SDS011;9088;55.674;13.354;2023-10-31T04:51:54;1.20;;;1.20;;
17925;SDS011;9088;55.674;13.354;2023-10-31T04:54:21;1.10;;;1.10;;
17925;SDS011;9088;55.674;13.354;2023-10-31T04:56:52;1.17;;;1.17;;
17925;SDS011;9088;55.674;13.354;2023-10-31T04:59:19;1.10;;;1.10;;
17925;SDS011;9088;55.674;13.354;2023-10-31T05:01:49;1.10;;;1.10;;
17925;SDS011;9088;55.674;13.354;2023-10-31T05:04:17;1.10;;;1.10;;
17925;SDS011;9088;55.674;13.354;2023-10-31T05:06:44;1.00;;;1.00;;
17925;SDS011;9088;55.674;13.354;2023-10-31T05:09:11;0.90;;;0.90;;
17925;SDS011;9088;55.674;13.354;2023-10-31T05:11:38;0.90;;;0.90;;
17925;SDS011;9088;55.674;13.354;2023-10-31T05:14:07;0.90;;;0.90;;
17925;SDS011;9088;55.674;13.354;2023-10-31T05:16:38;0.90;;;0.90;;
17925;SDS011;9088;55.674;13.354;2023-10-31T05:19:06;0.90;;;0.90;;
17925;SDS011;9088;55.674;13.354;2023-10-31T05:21:33;1.00;;;1.00;;
17925;SDS011;9088;55.674;13.354;2023-10-31T05:24:00;0.97;;;0.97;;
17925;SDS011;9088;55.674;13.354;2023-10-31T05:26:27;0.93;;;0.93;;
17925;SDS011;9088;55.674;13.354;2023-10-31T05:28:54;1.00;;;1.00;;
17925;SDS011;9088;55.674;13.354;2023-10-31T05:31:23;0.97;;;0.97;;
17925;SDS011;9088;55.674;13.354;2023-10-31T05:33:50;0.90;;;0.90;;
17925;SDS011;9088;55.674;13.354;2023-10-31T05:36:18;0.90;;;0.90;;
17925;SDS011;9088;55.674;13.354;2023-10-31T05:38:45;0.90;;;0.90;;
17925;SDS011;9088;55.674;13.354;2023-10-31T05:41:12;0.90;;;0.90;;
17925;SDS011;9088;55.674;13.354;2023-10-31T05:43:40;0.87;;;0.87;;
17925;SDS011;9088;55.674;13.354;2023-10-31T05:46:07;0.90;;;0.90;;
17925;SDS011;9088;55.674;13.354;2023-10-31T05:48:38;0.90;;;0.90;;
17925;SDS011;9088;55.674;13.354;2023-10-31T05:51:10;0.90;;;0.90;;
17925;SDS011;9088;55.674;13.354;2023-10-31T05:53:37;0.80;;;0.80;;
17925;SDS011;9088;55.674;13.354;2023-10-31T05:56:05;0.80;;;0.80;;
17925;SDS011;9088;55.674;13.354;2023-10-31T05:58:33;0.90;;;0.90;;
17925;SDS011;9088;55.674;13.354;2023-10-31T06:01:00;0.80;;;0.80;;
17925;SDS011;9088;55.674;13.354;2023-10-31T06:03:27;0.90;;;0.90;;
17925;SDS011;9088;55.674;13.354;2023-10-31T06:05:57;0.97;;;0.97;;
17925;SDS011;9088;55.674;13.354;2023-10-31T06:08:23;0.83;;;0.83;;
17925;SDS011;9088;55.674;13.354;2023-10-31T06:10:53;0.80;;;0.80;;
17925;SDS011;9088;55.674;13.354;2023-10-31T06:13:22;0.90;;;0.90;;
17925;SDS011;9088;55.674;13.354;2023-10-31T06:15:50;0.90;;;0.90;;
17925;SDS011;9088;55.674;13.354;2023-10-31T06:18:17;0.90;;;0.90;;
17925;SDS011;9088;55.674;13.354;2023-10-31T06:20:44;0.90;;;0.90;;
17925;SDS011;9088;55.674;13.354;2023-10-31T06:23:13;0.90;;;0.90;;
17925;SDS011;9088;55.674;13.354;2023-10-31T06:25:40;1.00;;;1.00;;
17925;SDS011;9088;55.674;13.354;2023-10-31T06:28:07;0.90;;;0.90;;
17925;SDS011;9088;55.674;13.354;2023-10-31T06:30:34;0.90;;;0.90;;
17925;SDS011;9088;55.674;13.354;2023-10-31T06:33:01;0.80;;;0.80;;
17925;SDS011;9088;55.674;13.354;2023-10-31T06:35:28;0.93;;;0.93;;
17925;SDS011;9088;55.674;13.354;2023-10-31T06:37:55;0.90;;;0.90;;
17925;SDS011;9088;55.674;13.354;2023-10-31T06:40:26;1.00;;;1.00;;
17925;SDS011;9088;55.674;13.354;2023-10-31T06:42:53;0.90;;;0.90;;
17925;SDS011;9088;55.674;13.354;2023-10-31T06:45:20;0.90;;;0.90;;
17925;SDS011;9088;55.674;13.354;2023-10-31T06:47:47;0.97;;;0.97;;
17925;SDS011;9088;55.674;13.354;2023-10-31T06:50:14;0.90;;;0.90;;
17925;SDS011;9088;55.674;13.354;2023-10-31T06:52:41;0.90;;;0.90;;
17925;SDS011;9088;55.674;13.354;2023-10-31T06:55:08;0.90;;;0.90;;
17925;SDS011;9088;55.674;13.354;2023-10-31T06:57:36;0.90;;;0.90;;
17925;SDS011;9088;55.674;13.354;2023-10-31T07:00:04;0.90;;;0.90;;
17925;SDS011;9088;55.674;13.354;2023-10-31T07:02:33;0.90;;;0.90;;
17925;SDS011;9088;55.674;13.354;2023-10-31T07:05:01;0.90;;;0.90;;
17925;SDS011;9088;55.674;13.354;2023-10-31T07:07:29;0.80;;;0.80;;
17925;SDS011;9088;55.674;13.354;2023-10-31T07:09:56;0.80;;;0.80;;
17925;SDS011;9088;55.674;13.354;2023-10-31T07:12:23;0.70;;;0.70;;
17925;SDS011;9088;55.674;13.354;2023-10-31T07:14:51;2.83;;;2.73;;
17925;SDS011;9088;55.674;13.354;2023-10-31T07:17:27;2.80;;;2.70;;
17925;SDS011;9088;55.674;13.354;2023-10-31T07:19:54;2.80;;;2.70;;
17925;SDS011;9088;55.674;13.354;2023-10-31T07:22:21;2.83;;;2.73;;
17925;SDS011;9088;55.674;13.354;2023-10-31T07:24:49;2.77;;;2.67;;
17925;SDS011;9088;55.674;13.354;2023-10-31T07:27:16;3.00;;;2.90;;
17925;SDS011;9088;55.674;13.354;2023-10-31T07:29:43;2.90;;;2.80;;
17925;SDS011;9088;55.674;13.354;2023-10-31T07:32:12;2.73;;;2.63;;
17925;SDS011;9088;55.674;13.354;2023-10-31T07:34:40;2.80;;;2.70;;
17925;SDS011;9088;55.674;13.354;2023-10-31T07:37:07;2.70;;;2.60;;
17925;SDS011;9088;55.674;13.354;2023-10-31T07:39:37;2.70;;;2.60;;
17925;SDS011;9088;55.674;13.354;2023-10-31T07:42:05;2.83;;;2.73;;
17925;SDS011;9088;55.674;13.354;2023-10-31T07:44:34;2.00;;;1.90;;
17925;SDS011;9088;55.674;13.354;2023-10-31T07:47:01;2.30;;;2.20;;
17925;SDS011;9088;55.674;13.354;2023-10-31T07:49:30;2.50;;;2.40;;
17925;SDS011;9088;55.674;13.354;2023-10-31T07:51:57;2.33;;;2.23;;
17925;SDS011;9088;55.674;13.354;2023-10-31T07:54:24;2.20;;;2.10;;
17925;SDS011;9088;55.674;13.354;2023-10-31T07:56:52;2.63;;;2.53;;
17925;SDS011;9088;55.674;13.354;2023-10-31T07:59:20;2.83;;;2.73;;
17925;SDS011;9088;55.674;13.354;2023-10-31T08:01:47;2.63;;;2.53;;
17925;SDS011;9088;55.674;13.354;2023-10-31T08:04:15;2.83;;;2.73;;
17925;SDS011;9088;55.674;13.354;2023-10-31T08:06:44;2.83;;;2.73;;
17925;SDS011;9088;55.674;13.354;2023-10-31T08:09:11;2.80;;;2.70;;
17925;SDS011;9088;55.674;13.354;2023-10-31T08:11:38;2.43;;;2.33;;
17925;SDS011;9088;55.674;13.354;2023-10-31T08:14:07;2.40;;;2.30;;
17925;SDS011;9088;55.674;13.354;2023-10-31T08:16:35;2.60;;;2.50;;
17925;SDS011;9088;55.674;13.354;2023-10-31T08:19:02;2.60;;;2.50;;
17925;SDS011;9088;55.674;13.354;2023-10-31T08:21:29;2.60;;;2.50;;
17925;SDS011;9088;55.674;13.354;2023-10-31T08:24:01;2.60;;;2.50;;
17925;SDS011;9088;55.674;13.354;2023-10-31T08:26:28;2.53;;;2.43;;
17925;SDS011;9088;55.674;13.354;2023-10-31T08:28:55;2.60;;;2.50;;
17925;SDS011;9088;55.674;13.354;2023-10-31T08:31:22;2.60;;;2.50;;
17925;SDS011;9088;55.674;13.354;2023-10-31T08:33:49;2.50;;;2.40;;
17925;SDS011;9088;55.674;13.354;2023-10-31T08:36:16;2.50;;;2.40;;
17925;SDS011;9088;55.674;13.354;2023-10-31T08:38:43;2.53;;;2.43;;
17925;SDS011;9088;55.674;13.354;2023-10-31T08:41:11;2.40;;;2.30;;
17925;SDS011;9088;55.674;13.354;2023-10-31T08:43:43;2.43;;;2.33;;
17925;SDS011;9088;55.674;13.354;2023-10-31T08:46:10;2.40;;;2.30;;
17925;SDS011;9088;55.674;13.354;2023-10-31T08:48:38;2.40;;;2.30;;
17925;SDS011;9088;55.674;13.354;2023-10-31T08:51:05;2.47;;;2.37;;
17925;SDS011;9088;55.674;13.354;2023-10-31T08:53:34;2.47;;;2.37;;
17925;SDS011;9088;55.674;13.354;2023-10-31T08:56:01;2.23;;;2.13;;
17925;SDS011;9088;55.674;13.354;2023-10-31T08:58:30;2.30;;;2.20;;
17925;SDS011;9088;55.674;13.354;2023-10-31T09:00:57;2.40;;;2.30;;
17925;SDS011;9088;55.674;13.354;2023-10-31T09:03:27;2.50;;;2.40;;
17925;SDS011;9088;55.674;13.354;2023-10-31T09:05:54;2.30;;;2.20;;
17925;SDS011;9088;55.674;13.354;2023-10-31T09:08:21;2.27;;;2.17;;
17925;SDS011;9088;55.674;13.354;2023-10-31T09:10:48;2.30;;;2.20;;
17925;SDS011;9088;55.674;13.354;2023-10-31T09:13:15;2.40;;;2.30;;
17925;SDS011;9088;55.674;13.354;2023-10-31T09:15:44;2.20;;;2.10;;
17925;SDS011;9088;55.674;13.354;2023-10-31T09:18:11;2.40;;;2.30;;
17925;SDS011;9088;55.674;13.354;2023-10-31T09:20:38;2.40;;;2.30;;
17925;SDS011;9088;55.674;13.354;2023-10-31T09:23:05;2.53;;;2.43;;
17925;SDS011;9088;55.674;13.354;2023-10-31T09:25:32;2.80;;;2.70;;
17925;SDS011;9088;55.674;13.354;2023-10-31T09:27:59;2.80;;;2.70;;
17925;SDS011;9088;55.674;13.354;2023-10-31T09:30:27;2.80;;;2.70;;
17925;SDS011;9088;55.674;13.354;2023-10-31T09:32:55;2.70;;;2.60;;
17925;SDS011;9088;55.674;13.354;2023-10-31T09:35:22;2.63;;;2.53;;
17925;SDS011;9088;55.674;13.354;2023-10-31T09:37:50;2.47;;;2.37;;
17925;SDS011;9088;55.674;13.354;2023-10-31T09:40:17;2.60;;;2.50;;
17925;SDS011;9088;55.674;13.354;2023-10-31T09:42:44;2.60;;;2.50;;
17925;SDS011;9088;55.674;13.354;2023-10-31T09:45:14;2.43;;;2.33;;
17925;SDS011;9088;55.674;13.354;2023-10-31T09:47:41;2.60;;;2.50;;
17925;SDS011;9088;55.674;13.354;2023-10-31T09:50:10;2.63;;;2.53;;
17925;SDS011;9088;55.674;13.354;2023-10-31T09:52:37;2.60;;;2.50;;
17925;SDS011;9088;55.674;13.354;2023-10-31T09:55:05;3.00;;;2.90;;
17925;SDS011;9088;55.674;13.354;2023-10-31T09:57:32;2.93;;;2.83;;
17925;SDS011;9088;55.674;13.354;2023-10-31T09:59:59;2.70;;;2.60;;
17925;SDS011;9088;55.674;13.354;2023-10-31T10:02:26;2.80;;;2.70;;
17925;SDS011;9088;55.674;13.354;2023-10-31T10:04:53;2.80;;;2.70;;
17925;SDS011;9088;55.674;13.354;2023-10-31T10:07:21;2.70;;;2.60;;
17925;SDS011;9088;55.674;13.354;2023-10-31T10:09:49;2.80;;;2.70;;
17925;SDS011;9088;55.674;13.354;2023-10-31T10:12:16;2.77;;;2.67;;
17925;SDS011;9088;55.674;13.354;2023-10-31T10:14:44;2.33;;;2.23;;
17925;SDS011;9088;55.674;13.354;2023-10-31T10:17:15;2.67;;;2.57;;
17925;SDS011;9088;55.674;13.354;2023-10-31T10:19:42;2.90;;;2.80;;
17925;SDS011;9088;55.674;13.354;2023-10-31T10:22:09;3.10;;;3.00;;
17925;SDS011;9088;55.674;13.354;2023-10-31T10:24:40;3.00;;;2.90;;
17925;SDS011;9088;55.674;13.354;2023-10-31T10:27:07;2.87;;;2.77;;
17925;SDS011;9088;55.674;13.354;2023-10-31T10:29:34;2.77;;;2.67;;
17925;SDS011;9088;55.674;13.354;2023-10-31T10:32:05;2.83;;;2.73;;
17925;SDS011;9088;55.674;13.354;2023-10-31T10:34:37;3.20;;;3.10;;
17925;SDS011;9088;55.674;13.354;2023-10-31T10:37:04;3.10;;;3.00;;
17925;SDS011;9088;55.674;13.354;2023-10-31T10:39:32;2.80;;;2.70;;
17925;SDS011;9088;55.674;13.354;2023-10-31T10:42:05;3.30;;;3.20;;
17925;SDS011;9088;55.674;13.354;2023-10-31T10:44:35;3.43;;;3.33;;
17925;SDS011;9088;55.674;13.354;2023-10-31T10:47:05;3.80;;;3.70;;
17925;SDS011;9088;55.674;13.354;2023-10-31T10:49:33;3.47;;;3.37;;
17925;SDS011;9088;55.674;13.354;2023-10-31T10:52:01;3.67;;;3.57;;
17925;SDS011;9088;55.674;13.354;2023-10-31T10:54:34;3.37;;;3.27;;
17925;SDS011;9088;55.674;13.354;2023-10-31T10:57:09;3.23;;;3.13;;
17925;SDS011;9088;55.674;13.354;2023-10-31T10:59:41;3.37;;;3.27;;
17925;SDS011;9088;55.674;13.354;2023-10-31T11:02:09;3.23;;;3.13;;
17925;SDS011;9088;55.674;13.354;2023-10-31T11:04:36;3.57;;;3.47;;
17925;SDS011;9088;55.674;13.354;2023-10-31T11:07:08;3.33;;;3.23;;
17925;SDS011;9088;55.674;13.354;2023-10-31T11:09:35;3.23;;;3.13;;
17925;SDS011;9088;55.674;13.354;2023-10-31T11:12:03;2.97;;;2.87;;
17925;SDS011;9088;55.674;13.354;2023-10-31T11:14:31;3.43;;;3.33;;
17925;SDS011;9088;55.674;13.354;2023-10-31T11:17:01;3.63;;;3.53;;
17925;SDS011;9088;55.674;13.354;2023-10-31T11:19:29;3.50;;;3.40;;
17925;SDS011;9088;55.674;13.354;2023-10-31T11:21:57;3.63;;;3.53;;
17925;SDS011;9088;55.674;13.354;2023-10-31T11:24:26;3.23;;;3.13;;
17925;SDS011;9088;55.674;13.354;2023-10-31T11:26:53;3.20;;;3.10;;
17925;SDS011;9088;55.674;13.354;2023-10-31T11:29:20;3.33;;;3.23;;
17925;SDS011;9088;55.674;13.354;2023-10-31T11:31:49;3.50;;;3.40;;
17925;SDS011;9088;55.674;13.354;2023-10-31T11:34:16;3.47;;;3.37;;
17925;SDS011;9088;55.674;13.354;2023-10-31T11:36:44;3.57;;;3.47;;
17925;SDS011;9088;55.674;13.354;2023-10-31T11:39:13;3.60;;;3.50;;
17925;SDS011;9088;55.674;13.354;2023-10-31T11:41:40;3.30;;;3.20;;
17925;SDS011;9088;55.674;13.354;2023-10-31T11:44:12;3.23;;;3.13;;
17925;SDS011;9088;55.674;13.354;2023-10-31T11:46:39;3.33;;;3.23;;
17925;SDS011;9088;55.674;13.354;2023-10-31T11:49:08;3.30;;;3.20;;
17925;SDS011;9088;55.674;13.354;2023-10-31T11:51:35;3.47;;;3.37;;
17925;SDS011;9088;55.674;13.354;2023-10-31T11:54:04;3.43;;;3.33;;
17925;SDS011;9088;55.674;13.354;2023-10-31T11:56:33;2.90;;;2.80;;
17925;SDS011;9088;55.674;13.354;2023-10-31T11:59:01;3.30;;;3.20;;
17925;SDS011;9088;55.674;13.354;2023-10-31T12:01:28;3.43;;;3.33;;
17925;SDS011;9088;55.674;13.354;2023-10-31T12:03:55;3.53;;;3.43;;
17925;SDS011;9088;55.674;13.354;2023-10-31T12:06:24;3.60;;;3.50;;
17925;SDS011;9088;55.674;13.354;2023-10-31T12:08:51;3.30;;;3.20;;
17925;SDS011;9088;55.674;13.354;2023-10-31T12:11:18;3.30;;;3.20;;
17925;SDS011;9088;55.674;13.354;2023-10-31T12:13:52;3.10;;;3.00;;
17925;SDS011;9088;55.674;13.354;2023-10-31T12:16:22;3.33;;;3.23;;
17925;SDS011;9088;55.674;13.354;2023-10-31T12:18:53;3.33;;;3.23;;
17925;SDS011;9088;55.674;13.354;2023-10-31T12:21:37;3.23;;;3.13;;
17925;SDS011;9088;55.674;13.354;2023-10-31T12:24:05;3.10;;;3.00;;
17925;SDS011;9088;55.674;13.354;2023-10-31T12:26:33;3.00;;;2.90;;
17925;SDS011;9088;55.674;13.354;2023-10-31T12:29:07;3.07;;;2.97;;
17925;SDS011;9088;55.674;13.354;2023-10-31T12:31:34;3.30;;;3.20;;
17925;SDS011;9088;55.674;13.354;2023-10-31T12:34:04;2.90;;;2.80;;
17925;SDS011;9088;55.674;13.354;2023-10-31T12:36:34;3.30;;;3.20;;
17925;SDS011;9088;55.674;13.354;2023-10-31T12:39:03;3.13;;;3.03;;
17925;SDS011;9088;55.674;13.354;2023-10-31T12:41:31;3.37;;;3.27;;
17925;SDS011;9088;55.674;13.354;2023-10-31T12:43:59;3.00;;;2.90;;
17925;SDS011;9088;55.674;13.354;2023-10-31T12:46:27;3.10;;;3.00;;
17925;SDS011;9088;55.674;13.354;2023-10-31T12:48:55;3.20;;;3.10;;
17925;SDS011;9088;55.674;13.354;2023-10-31T12:51:22;2.83;;;2.73;;
17925;SDS011;9088;55.674;13.354;2023-10-31T12:53:49;2.80;;;2.70;;
17925;SDS011;9088;55.674;13.354;2023-10-31T12:56:36;3.20;;;3.10;;
17925;SDS011;9088;55.674;13.354;2023-10-31T12:59:04;2.90;;;2.80;;
17925;SDS011;9088;55.674;13.354;2023-10-31T13:01:33;3.13;;;3.03;;
17925;SDS011;9088;55.674;13.354;2023-10-31T13:04:00;3.10;;;3.00;;
17925;SDS011;9088;55.674;13.354;2023-10-31T13:06:27;3.07;;;2.97;;
17925;SDS011;9088;55.674;13.354;2023-10-31T13:08:54;2.87;;;2.77;;
17925;SDS011;9088;55.674;13.354;2023-10-31T13:11:22;3.10;;;3.00;;
17925;SDS011;9088;55.674;13.354;2023-10-31T13:13:52;3.50;;;3.40;;
17925;SDS011;9088;55.674;13.354;2023-10-31T13:16:19;2.80;;;2.70;;
17925;SDS011;9088;55.674;13.354;2023-10-31T13:18:46;3.00;;;2.90;;
17925;SDS011;9088;55.674;13.354;2023-10-31T13:21:14;3.07;;;2.97;;
17925;SDS011;9088;55.674;13.354;2023-10-31T13:23:42;3.53;;;3.43;;
17925;SDS011;9088;55.674;13.354;2023-10-31T13:26:10;3.30;;;3.20;;
17925;SDS011;9088;55.674;13.354;2023-10-31T13:28:38;2.97;;;2.87;;
17925;SDS011;9088;55.674;13.354;2023-10-31T13:31:07;3.50;;;3.40;;
17925;SDS011;9088;55.674;13.354;2023-10-31T13:33:36;3.37;;;3.27;;
17925;SDS011;9088;55.674;13.354;2023-10-31T13:36:03;3.53;;;3.43;;
17925;SDS011;9088;55.674;13.354;2023-10-31T13:38:30;3.13;;;3.03;;
17925;SDS011;9088;55.674;13.354;2023-10-31T13:40:57;3.40;;;3.30;;
17925;SDS011;9088;55.674;13.354;2023-10-31T13:43:26;3.53;;;3.43;;
17925;SDS011;9088;55.674;13.354;2023-10-31T13:45:53;3.40;;;3.30;;
17925;SDS011;9088;55.674;13.354;2023-10-31T13:48:21;3.17;;;3.07;;
17925;SDS011;9088;55.674;13.354;2023-10-31T13:50:48;3.40;;;3.30;;
17925;SDS011;9088;55.674;13.354;2023-10-31T13:53:17;3.40;;;3.30;;
17925;SDS011;9088;55.674;13.354;2023-10-31T13:55:44;3.40;;;3.30;;
17925;SDS011;9088;55.674;13.354;2023-10-31T13:58:12;3.70;;;3.60;;
17925;SDS011;9088;55.674;13.354;2023-10-31T14:00:39;3.40;;;3.30;;
17925;SDS011;9088;55.674;13.354;2023-10-31T14:03:06;3.57;;;3.47;;
17925;SDS011;9088;55.674;13.354;2023-10-31T14:05:36;3.27;;;3.17;;
17925;SDS011;9088;55.674;13.354;2023-10-31T14:08:04;3.30;;;3.20;;
17925;SDS011;9088;55.674;13.354;2023-10-31T14:10:31;0.80;;;0.80;;
17925;SDS011;9088;55.674;13.354;2023-10-31T14:12:58;0.67;;;0.67;;
17925;SDS011;9088;55.674;13.354;2023-10-31T14:15:25;0.70;;;0.70;;
17925;SDS011;9088;55.674;13.354;2023-10-31T14:17:52;0.63;;;0.63;;
17925;SDS011;9088;55.674;13.354;2023-10-31T14:20:19;0.70;;;0.70;;
17925;SDS011;9088;55.674;13.354;2023-10-31T14:22:48;0.70;;;0.70;;
17925;SDS011;9088;55.674;13.354;2023-10-31T14:25:15;0.70;;;0.70;;
17925;SDS011;9088;55.674;13.354;2023-10-31T14:27:43;0.60;;;0.60;;
17925;SDS011;9088;55.674;13.354;2023-10-31T14:30:13;0.63;;;0.63;;
17925;SDS011;9088;55.674;13.354;2023-10-31T14:32:40;0.60;;;0.60;;
17925;SDS011;9088;55.674;13.354;2023-10-31T14:35:07;0.60;;;0.60;;
17925;SDS011;9088;55.674;13.354;2023-10-31T14:37:34;0.60;;;0.60;;
17925;SDS011;9088;55.674;13.354;2023-10-31T14:40:03;0.60;;;0.60;;
17925;SDS011;9088;55.674;13.354;2023-10-31T14:42:31;0.60;;;0.60;;
17925;SDS011;9088;55.674;13.354;2023-10-31T14:44:58;0.60;;;0.60;;
17925;SDS011;9088;55.674;13.354;2023-10-31T14:47:25;0.60;;;0.60;;
17925;SDS011;9088;55.674;13.354;2023-10-31T14:49:52;0.60;;;0.60;;
17925;SDS011;9088;55.674;13.354;2023-10-31T14:52:22;0.60;;;0.60;;